Townsend, Virginia
Current Conditions -  °F | °C
As of 4:58 AM on Saturday 22 Nov 2014 (Local Time) from KLFI Reporting Station
Clear Clear  
Wind Chill: 25°   Ceiling: Unl
Heat Index: 25°   Visibility: 10mi
Dew Point: 22°   Wind: 3mph
Humidity: 87%   Direction: 230°SW
Pressure: 30.56"   Gusts: NA
Location:  37.18°N, 75.96°W
Report Text: KLFI 220958Z AUTO 23003KT 10SM CLR M04/M06 A3056 RMK AO2 SLP356 T10381056 $
Loading
Personal Weather Stations






























Interactive Weather Map New forecast layout! Learn more

10-Day Weather Forecast

Advertisements
Track Severe Weather on mobile